createdAt,value
2022-08-27T00:00:15.378Z,73.98
2022-08-27T00:02:43.699Z,74.26
2022-08-27T00:05:12.854Z,74.48
2022-08-27T00:07:39.934Z,74.40
2022-08-27T00:10:09.114Z,73.86
2022-08-27T00:12:36.241Z,74.73
2022-08-27T00:15:04.608Z,74.66
2022-08-27T00:17:31.136Z,74.26
2022-08-27T00:19:57.994Z,74.24
2022-08-27T00:22:24.482Z,73.99
2022-08-27T00:24:50.977Z,74.31
2022-08-27T00:27:17.954Z,73.91
2022-08-27T00:29:44.800Z,73.65
2022-08-27T00:32:11.320Z,73.49
2022-08-27T00:34:37.826Z,73.02
2022-08-27T00:37:06.612Z,73.19
2022-08-27T00:39:34.019Z,72.61
2022-08-27T00:42:03.645Z,73.26
2022-08-27T00:44:31.925Z,73.17
2022-08-27T00:47:02.722Z,73.22
2022-08-27T00:49:43.590Z,72.86
2022-08-27T00:52:22.225Z,72.64
2022-08-27T00:54:52.203Z,72.85
2022-08-27T00:57:19.192Z,73.60
2022-08-27T00:59:46.409Z,74.49
2022-08-27T01:02:19.133Z,74.17
2022-08-27T01:04:55.489Z,74.18
2022-08-27T01:07:31.004Z,74.02
2022-08-27T01:10:00.276Z,74.13
2022-08-27T01:12:28.385Z,74.21
2022-08-27T01:14:56.679Z,74.40
2022-08-27T01:17:24.788Z,74.44
2022-08-27T01:19:58.617Z,74.46
2022-08-27T01:22:43.307Z,74.09
2022-08-27T01:25:14.323Z,74.14
2022-08-27T01:27:43.412Z,74.18
2022-08-27T01:30:12.935Z,74.03
2022-08-27T01:32:39.983Z,74.41
2022-08-27T01:35:09.330Z,74.28
2022-08-27T01:37:36.821Z,73.96
2022-08-27T01:40:04.775Z,73.76
2022-08-27T01:42:41.031Z,73.22
2022-08-27T01:45:14.264Z,73.41
2022-08-27T01:47:41.008Z,73.22
2022-08-27T01:50:13.746Z,73.75
2022-08-27T01:52:40.704Z,73.83
2022-08-27T01:55:09.608Z,73.79
2022-08-27T01:57:36.209Z,73.63
2022-08-27T02:00:14.175Z,73.60
2022-08-27T02:02:41.152Z,73.65
2022-08-27T02:05:08.779Z,73.64
2022-08-27T02:07:36.573Z,74.01
2022-08-27T02:10:04.763Z,73.80
2022-08-27T02:12:31.252Z,73.92
2022-08-27T02:14:57.754Z,73.29
2022-08-27T02:17:24.298Z,73.51
2022-08-27T02:19:50.791Z,73.17
2022-08-27T02:22:17.303Z,73.23
2022-08-27T02:24:43.766Z,73.40
2022-08-27T02:27:11.136Z,73.24
2022-08-27T02:29:37.930Z,73.48
2022-08-27T02:32:04.477Z,73.14
2022-08-27T02:34:30.954Z,73.51
2022-08-27T02:36:57.507Z,73.34
2022-08-27T02:39:24.018Z,72.84
2022-08-27T02:41:50.562Z,73.18
2022-08-27T02:44:17.206Z,73.58
2022-08-27T02:46:43.748Z,73.51
2022-08-27T02:49:10.807Z,73.44
2022-08-27T02:51:37.674Z,73.61
2022-08-27T02:54:05.552Z,73.98
2022-08-27T02:56:36.018Z,73.60
2022-08-27T02:59:02.535Z,73.08
2022-08-27T03:01:29.166Z,73.45
2022-08-27T03:03:57.340Z,73.37
2022-08-27T03:06:23.832Z,73.51
2022-08-27T03:08:53.146Z,73.26
2022-08-27T03:11:20.345Z,73.72
2022-08-27T03:13:46.890Z,73.96
2022-08-27T03:16:13.477Z,73.89
2022-08-27T03:18:40.593Z,73.77
2022-08-27T03:21:08.133Z,73.62
2022-08-27T03:23:35.379Z,73.60
2022-08-27T03:26:05.010Z,72.43
2022-08-27T03:28:34.038Z,72.08
2022-08-27T03:31:04.592Z,72.15
2022-08-27T03:33:33.799Z,71.71
2022-08-27T03:36:00.346Z,72.35
2022-08-27T03:38:27.286Z,72.36
2022-08-27T03:40:54.298Z,72.34
2022-08-27T03:43:22.190Z,71.32
2022-08-27T03:46:00.560Z,71.45
2022-08-27T03:48:29.056Z,71.54
2022-08-27T03:50:55.811Z,71.72
2022-08-27T03:53:22.344Z,72.05
2022-08-27T03:55:49.238Z,72.33
2022-08-27T03:58:16.850Z,72.53
2022-08-27T04:00:43.430Z,73.12
2022-08-27T04:03:13.196Z,73.26
2022-08-27T04:05:40.715Z,72.58
2022-08-27T04:08:13.240Z,72.62
2022-08-27T04:10:42.512Z,72.85
2022-08-27T04:13:09.056Z,72.89
2022-08-27T04:15:37.825Z,73.29
2022-08-27T04:18:07.545Z,73.83
2022-08-27T04:20:35.726Z,73.78
2022-08-27T04:23:02.676Z,73.58
2022-08-27T04:25:29.459Z,73.55
2022-08-27T04:27:55.971Z,73.48
2022-08-27T04:30:22.473Z,73.79
2022-08-27T04:32:49.265Z,73.59
2022-08-27T04:35:16.049Z,73.49
2022-08-27T04:37:43.172Z,73.18
2022-08-27T04:40:10.385Z,73.54
2022-08-27T04:42:36.850Z,73.20
2022-08-27T04:45:04.360Z,73.48
2022-08-27T04:47:31.078Z,73.35
2022-08-27T04:49:57.837Z,73.58
2022-08-27T04:52:24.938Z,73.23
2022-08-27T04:54:51.953Z,73.06
2022-08-27T04:57:18.796Z,72.67
2022-08-27T04:59:45.516Z,72.61
2022-08-27T05:02:12.582Z,72.22
2022-08-27T05:04:40.647Z,71.86
2022-08-27T05:07:09.267Z,71.41
2022-08-27T05:09:36.291Z,71.25
2022-08-27T05:12:03.362Z,72.01
2022-08-27T05:14:30.406Z,72.58
2022-08-27T05:16:59.025Z,71.55
2022-08-27T05:19:25.994Z,71.96
2022-08-27T05:21:55.661Z,72.26
2022-08-27T05:24:22.414Z,72.21
2022-08-27T05:26:49.956Z,71.89
2022-08-27T05:29:17.123Z,72.31
2022-08-27T05:31:43.754Z,72.72
2022-08-27T05:34:16.572Z,72.72
2022-08-27T05:36:49.243Z,72.28
2022-08-27T05:39:16.640Z,72.80
2022-08-27T05:41:43.204Z,72.67
2022-08-27T05:44:37.264Z,72.54
2022-08-27T05:46:57.338Z,72.63
2022-08-27T05:49:23.809Z,72.71
2022-08-27T05:51:50.289Z,71.49
2022-08-27T05:54:19.178Z,70.95
2022-08-27T05:56:46.524Z,71.09
2022-08-27T05:59:31.799Z,71.08
2022-08-27T06:02:01.453Z,70.97
2022-08-27T06:04:28.105Z,71.51
2022-08-27T06:06:54.688Z,71.85
2022-08-27T06:09:25.448Z,71.68
2022-08-27T06:11:56.402Z,71.53
2022-08-27T06:14:23.247Z,71.84
2022-08-27T06:16:50.011Z,71.80
2022-08-27T06:19:16.728Z,71.40
2022-08-27T06:21:43.814Z,71.15
2022-08-27T06:24:14.875Z,71.46
2022-08-27T06:26:44.475Z,71.44
2022-08-27T06:29:12.825Z,71.92
2022-08-27T06:31:40.396Z,71.25
2022-08-27T06:34:09.970Z,71.60
2022-08-27T06:36:39.429Z,71.30
2022-08-27T06:39:07.348Z,71.39
2022-08-27T06:41:35.105Z,71.10
2022-08-27T06:44:01.586Z,71.26
2022-08-27T06:46:29.444Z,71.32
2022-08-27T06:48:58.883Z,71.19
2022-08-27T06:51:31.422Z,71.61
2022-08-27T06:54:01.090Z,71.50
2022-08-27T06:56:28.581Z,71.40
2022-08-27T06:58:57.361Z,71.50
2022-08-27T07:01:36.613Z,71.19
2022-08-27T07:04:07.128Z,71.03
2022-08-27T07:06:35.885Z,71.46
2022-08-27T07:09:02.725Z,70.58
2022-08-27T07:11:31.941Z,70.54
2022-08-27T07:13:59.081Z,70.83
2022-08-27T07:16:27.217Z,70.92
2022-08-27T07:18:56.808Z,70.81
2022-08-27T07:21:28.524Z,70.76
2022-08-27T07:23:58.889Z,71.09
2022-08-27T07:26:26.636Z,70.91
2022-08-27T07:28:53.503Z,70.78
2022-08-27T07:31:22.792Z,70.97
2022-08-27T07:33:52.548Z,70.75
2022-08-27T07:36:22.952Z,71.20
2022-08-27T07:39:00.866Z,70.75
2022-08-27T07:41:31.330Z,70.90
2022-08-27T07:44:18.737Z,70.47
2022-08-27T07:46:48.773Z,70.38
2022-08-27T07:49:17.210Z,70.02
2022-08-27T07:51:43.733Z,70.19
2022-08-27T07:54:10.716Z,70.06
2022-08-27T07:56:37.184Z,70.23
2022-08-27T07:59:03.911Z,70.20
2022-08-27T08:01:30.447Z,70.02
2022-08-27T08:03:57.095Z,70.08
2022-08-27T08:06:23.634Z,69.55
2022-08-27T08:08:50.227Z,69.08
2022-08-27T08:11:18.273Z,68.84
2022-08-27T08:13:46.117Z,68.88
2022-08-27T08:16:13.843Z,68.73
2022-08-27T08:18:40.892Z,68.57
2022-08-27T08:21:11.236Z,68.39
2022-08-27T08:23:38.369Z,68.45
2022-08-27T08:26:05.658Z,68.28
2022-08-27T08:28:32.877Z,67.91
2022-08-27T08:31:00.091Z,67.55
2022-08-27T08:33:27.830Z,67.41
2022-08-27T08:35:54.738Z,67.09
2022-08-27T08:38:21.841Z,67.26
2022-08-27T08:40:54.518Z,67.50
2022-08-27T08:43:33.107Z,67.94
2022-08-27T08:46:09.795Z,67.05
2022-08-27T08:48:40.521Z,66.94
2022-08-27T08:51:21.610Z,66.87
2022-08-27T08:54:04.624Z,67.24
2022-08-27T08:56:37.006Z,67.49
2022-08-27T08:59:05.942Z,67.37
2022-08-27T09:01:32.467Z,67.34
2022-08-27T09:04:05.176Z,67.65
2022-08-27T09:06:53.062Z,67.73
2022-08-27T09:09:28.006Z,67.27
2022-08-27T09:12:19.118Z,67.32
2022-08-27T09:15:04.111Z,67.38
2022-08-27T09:17:32.522Z,67.29
2022-08-27T09:19:59.419Z,67.09
2022-08-27T09:22:50.167Z,66.75
2022-08-27T09:25:26.642Z,66.49
2022-08-27T09:27:56.673Z,66.51
2022-08-27T09:30:30.513Z,65.76
2022-08-27T09:33:01.121Z,65.95
2022-08-27T09:35:44.726Z,65.55
2022-08-27T09:38:14.068Z,65.10
2022-08-27T09:40:49.115Z,64.55
2022-08-27T09:43:15.584Z,64.27
2022-08-27T09:45:49.552Z,63.75
2022-08-27T09:48:31.080Z,63.44
2022-08-27T09:51:02.399Z,63.44
2022-08-27T09:53:51.643Z,63.47
2022-08-27T09:56:38.013Z,64.03
2022-08-27T09:59:10.761Z,64.27
2022-08-27T10:01:53.873Z,63.93
2022-08-27T10:04:51.342Z,63.75
2022-08-27T10:07:37.179Z,63.28
2022-08-27T10:10:13.122Z,62.28
2022-08-27T10:13:19.784Z,61.62
2022-08-27T10:16:06.850Z,60.45
2022-08-27T10:18:54.633Z,60.52
2022-08-27T10:21:27.235Z,60.30
2022-08-27T10:24:13.213Z,59.93
2022-08-27T10:26:54.887Z,61.00
2022-08-27T10:29:55.134Z,59.98
2022-08-27T10:32:31.196Z,60.13
2022-08-27T10:35:18.110Z,60.57
2022-08-27T10:38:05.981Z,61.34
2022-08-27T10:40:38.609Z,61.72
2022-08-27T10:43:37.316Z,61.43
2022-08-27T10:46:10.916Z,61.35
2022-08-27T10:48:42.706Z,60.93
2022-08-27T10:51:33.735Z,60.91
2022-08-27T10:54:07.511Z,61.32
2022-08-27T10:57:03.651Z,60.82
2022-08-27T10:59:45.117Z,60.72
2022-08-27T11:02:20.599Z,60.99
2022-08-27T11:04:52.851Z,60.79
2022-08-27T11:07:27.038Z,60.37
2022-08-27T11:10:02.039Z,60.82
2022-08-27T11:12:36.358Z,61.04
2022-08-27T11:15:12.745Z,61.04
2022-08-27T11:17:42.511Z,60.77
2022-08-27T11:20:27.147Z,60.58
2022-08-27T11:23:12.111Z,60.76
2022-08-27T11:26:02.408Z,60.64
2022-08-27T11:28:41.907Z,61.58
2022-08-27T11:31:31.513Z,62.06
2022-08-27T11:34:07.902Z,62.29
2022-08-27T11:37:12.699Z,62.87
2022-08-27T11:39:52.064Z,62.85
2022-08-27T11:42:37.076Z,62.30
2022-08-27T11:45:08.663Z,62.82
2022-08-27T11:47:35.571Z,62.91
2022-08-27T11:50:16.021Z,62.96
2022-08-27T11:52:59.426Z,62.48
2022-08-27T11:55:31.939Z,62.35
2022-08-27T11:58:27.556Z,62.39
2022-08-27T12:00:54.445Z,62.30
2022-08-27T12:03:31.475Z,61.21
2022-08-27T12:05:58.905Z,61.94
2022-08-27T12:08:31.555Z,62.48
2022-08-27T12:11:19.734Z,62.16
2022-08-27T12:14:12.307Z,62.18
2022-08-27T12:16:46.139Z,61.39
2022-08-27T12:19:23.395Z,61.88
2022-08-27T12:22:05.085Z,61.97
2022-08-27T12:24:34.246Z,61.80
2022-08-27T12:27:15.516Z,62.03
2022-08-27T12:29:57.164Z,60.28
2022-08-27T12:32:28.685Z,58.60
2022-08-27T12:35:21.415Z,57.94
2022-08-27T12:38:03.876Z,57.68
2022-08-27T12:40:46.508Z,57.77
2022-08-27T12:43:17.970Z,57.59
2022-08-27T12:45:49.605Z,57.95
2022-08-27T12:48:23.973Z,57.66
2022-08-27T12:50:53.461Z,57.33
2022-08-27T12:53:43.610Z,57.75
2022-08-27T12:56:45.359Z,58.63
2022-08-27T12:59:17.634Z,59.00
2022-08-27T13:02:10.084Z,60.33
2022-08-27T13:04:41.008Z,60.91
2022-08-27T13:07:07.616Z,61.73
2022-08-27T13:09:37.456Z,61.78
2022-08-27T13:12:14.606Z,61.92
2022-08-27T13:14:41.385Z,61.00
2022-08-27T13:17:17.750Z,60.90
2022-08-27T13:19:51.188Z,60.37
2022-08-27T13:22:31.814Z,60.41
2022-08-27T13:25:02.383Z,60.03
2022-08-27T13:27:32.604Z,60.05
2022-08-27T13:30:07.450Z,60.45
2022-08-27T13:32:34.615Z,59.05
2022-08-27T13:35:01.900Z,59.17
2022-08-27T13:37:34.740Z,59.19
2022-08-27T13:40:01.380Z,58.02
2022-08-27T13:42:28.442Z,57.51
2022-08-27T13:45:02.835Z,57.94
2022-08-27T13:47:30.711Z,57.74
2022-08-27T13:50:07.655Z,58.64
2022-08-27T13:52:36.246Z,57.93
2022-08-27T13:55:09.859Z,57.81
2022-08-27T13:57:48.937Z,56.98
2022-08-27T14:00:20.566Z,56.79
2022-08-27T14:02:54.115Z,57.99
2022-08-27T14:05:25.434Z,57.37
2022-08-27T14:08:01.906Z,56.77
2022-08-27T14:10:41.359Z,55.95
2022-08-27T14:13:11.413Z,56.90
2022-08-27T14:15:42.949Z,56.66
2022-08-27T14:18:47.966Z,56.62
2022-08-27T14:21:15.227Z,56.39
2022-08-27T14:23:41.701Z,56.54
2022-08-27T14:26:08.521Z,56.67
2022-08-27T14:28:35.541Z,56.94
2022-08-27T14:31:02.136Z,56.56
2022-08-27T14:33:28.883Z,57.02
2022-08-27T14:35:55.478Z,57.17
2022-08-27T14:38:23.789Z,57.63
2022-08-27T14:40:53.640Z,58.00
2022-08-27T14:43:23.048Z,58.82
2022-08-27T14:45:51.728Z,59.50
2022-08-27T14:48:25.942Z,60.25
2022-08-27T14:50:55.392Z,61.22
2022-08-27T14:53:22.008Z,61.17
2022-08-27T14:55:51.654Z,61.67
2022-08-27T14:58:19.080Z,61.49
2022-08-27T15:00:45.682Z,61.96
2022-08-27T15:03:12.993Z,62.29
2022-08-27T15:05:39.554Z,62.33
2022-08-27T15:08:07.539Z,62.55
2022-08-27T15:10:36.065Z,62.32
2022-08-27T15:13:02.576Z,62.72
2022-08-27T15:15:29.091Z,62.67
2022-08-27T15:17:55.589Z,63.09
2022-08-27T15:20:22.132Z,62.89
2022-08-27T15:22:52.044Z,63.36
2022-08-27T15:25:19.808Z,63.53
2022-08-27T15:27:46.304Z,63.44
2022-08-27T15:30:15.495Z,62.81
2022-08-27T15:32:47.914Z,63.24
2022-08-27T15:35:18.706Z,63.44
2022-08-27T15:37:45.770Z,63.42
2022-08-27T15:40:14.556Z,62.44
2022-08-27T15:42:41.346Z,62.91
2022-08-27T15:45:08.895Z,62.87
2022-08-27T15:47:35.474Z,62.68
2022-08-27T15:50:01.966Z,62.78
2022-08-27T15:52:36.338Z,62.90
2022-08-27T15:55:15.498Z,62.61
2022-08-27T15:57:41.983Z,62.49
2022-08-27T16:00:09.167Z,62.83
2022-08-27T16:02:35.933Z,62.47
2022-08-27T16:05:02.641Z,62.35
2022-08-27T16:07:29.224Z,62.03
2022-08-27T16:09:55.766Z,62.49
2022-08-27T16:12:27.107Z,62.21
2022-08-27T16:14:55.094Z,62.74
2022-08-27T16:17:21.930Z,62.61
2022-08-27T16:19:49.351Z,62.34
2022-08-27T16:22:16.305Z,62.24
2022-08-27T16:24:43.336Z,62.79
2022-08-27T16:27:10.213Z,64.00
2022-08-27T16:29:37.031Z,63.58
2022-08-27T16:32:04.277Z,63.78
2022-08-27T16:34:31.033Z,63.47
2022-08-27T16:36:57.631Z,63.29
2022-08-27T16:39:24.104Z,63.31
2022-08-27T16:41:50.636Z,63.29
2022-08-27T16:44:17.632Z,63.13
2022-08-27T16:46:44.253Z,63.16
2022-08-27T16:49:29.107Z,62.84
2022-08-27T16:51:55.744Z,62.88
2022-08-27T16:54:22.477Z,63.41
2022-08-27T16:56:49.686Z,63.50
2022-08-27T16:59:16.703Z,63.63
2022-08-27T17:01:43.522Z,63.55
2022-08-27T17:04:21.354Z,63.34
2022-08-27T17:06:51.683Z,63.13
2022-08-27T17:09:19.085Z,64.35
2022-08-27T17:11:50.478Z,63.66
2022-08-27T17:14:16.954Z,62.89
2022-08-27T17:16:43.906Z,63.56
2022-08-27T17:19:16.759Z,64.07
2022-08-27T17:21:45.249Z,64.09
2022-08-27T17:24:12.479Z,63.60
2022-08-27T17:26:39.300Z,64.09
2022-08-27T17:29:05.943Z,63.46
2022-08-27T17:31:36.860Z,63.74
2022-08-27T17:34:05.717Z,63.38
2022-08-27T17:36:33.339Z,62.83
2022-08-27T17:39:00.195Z,63.07
2022-08-27T17:41:33.650Z,63.71
2022-08-27T17:44:15.999Z,63.39
2022-08-27T17:46:42.372Z,63.96
2022-08-27T17:49:09.472Z,63.21
2022-08-27T17:51:36.041Z,63.37
2022-08-27T17:54:03.321Z,63.20
2022-08-27T17:56:29.986Z,63.83
2022-08-27T17:58:56.772Z,63.21
2022-08-27T18:01:31.585Z,63.64
2022-08-27T18:03:58.727Z,63.58
2022-08-27T18:06:27.875Z,63.02
2022-08-27T18:08:54.584Z,63.14
2022-08-27T18:11:21.379Z,63.88
2022-08-27T18:13:54.031Z,63.17
2022-08-27T18:16:21.800Z,63.21
2022-08-27T18:18:48.528Z,63.85
2022-08-27T18:21:24.935Z,62.88
2022-08-27T18:23:52.765Z,63.40
2022-08-27T18:26:21.498Z,63.22
2022-08-27T18:28:48.999Z,63.74
2022-08-27T18:31:18.408Z,63.36
2022-08-27T18:33:45.139Z,63.35
2022-08-27T18:36:11.892Z,63.72
2022-08-27T18:38:38.423Z,63.55
2022-08-27T18:41:06.238Z,63.67
2022-08-27T18:43:35.221Z,62.97
2022-08-27T18:46:03.418Z,63.69
2022-08-27T18:48:30.105Z,63.51
2022-08-27T18:50:59.302Z,63.40
2022-08-27T18:53:28.843Z,63.13
2022-08-27T18:55:55.554Z,62.93
2022-08-27T18:58:22.448Z,62.52
2022-08-27T19:00:53.430Z,62.83
2022-08-27T19:03:25.197Z,62.54
2022-08-27T19:05:55.047Z,62.45
2022-08-27T19:08:23.992Z,62.33
2022-08-27T19:10:50.965Z,61.98
2022-08-27T19:13:17.830Z,61.64
2022-08-27T19:15:50.896Z,61.62
2022-08-27T19:18:18.557Z,62.04
2022-08-27T19:20:45.083Z,61.79
2022-08-27T19:23:11.726Z,61.69
2022-08-27T19:25:38.406Z,61.34
2022-08-27T19:28:05.006Z,62.29
2022-08-27T19:30:32.808Z,62.20
2022-08-27T19:32:59.343Z,61.63
2022-08-27T19:35:25.872Z,61.33
2022-08-27T19:37:53.471Z,61.21
2022-08-27T19:40:21.994Z,62.11
2022-08-27T19:42:49.454Z,62.17
2022-08-27T19:45:16.263Z,62.15
2022-08-27T19:47:50.348Z,62.33
2022-08-27T19:50:17.471Z,62.19
2022-08-27T19:52:44.168Z,62.26
2022-08-27T19:55:13.917Z,62.41
2022-08-27T19:57:41.535Z,62.64
2022-08-27T20:00:09.597Z,62.92
2022-08-27T20:02:36.200Z,63.15
2022-08-27T20:05:17.382Z,62.54
2022-08-27T20:07:45.919Z,62.44
2022-08-27T20:10:12.510Z,62.58
2022-08-27T20:12:39.059Z,62.98
2022-08-27T20:15:06.772Z,62.78
2022-08-27T20:17:34.979Z,62.74
2022-08-27T20:20:01.810Z,63.12
2022-08-27T20:22:28.296Z,63.26
2022-08-27T20:24:54.872Z,62.83
2022-08-27T20:27:21.468Z,63.22
2022-08-27T20:29:48.641Z,63.10
2022-08-27T20:32:15.301Z,63.97
2022-08-27T20:34:42.017Z,63.43
2022-08-27T20:37:08.687Z,63.37
2022-08-27T20:39:35.382Z,63.03
2022-08-27T20:42:01.961Z,63.40
2022-08-27T20:44:29.175Z,63.27
2022-08-27T20:46:59.762Z,63.29
2022-08-27T20:49:27.911Z,63.97
2022-08-27T20:52:03.236Z,63.42
2022-08-27T20:54:31.554Z,63.47
2022-08-27T20:56:58.605Z,63.99
2022-08-27T20:59:43.926Z,64.12
2022-08-27T21:02:14.113Z,63.79
2022-08-27T21:04:46.447Z,64.01
2022-08-27T21:07:14.131Z,64.09
2022-08-27T21:09:56.431Z,63.86
2022-08-27T21:12:28.420Z,63.95
2022-08-27T21:14:55.851Z,63.93
2022-08-27T21:17:29.497Z,64.00
2022-08-27T21:19:56.478Z,64.42
2022-08-27T21:22:23.812Z,64.57
2022-08-27T21:24:50.351Z,64.99
2022-08-27T21:27:18.338Z,64.67
2022-08-27T21:29:45.204Z,64.89
2022-08-27T21:32:12.604Z,64.67
2022-08-27T21:34:39.677Z,64.80
2022-08-27T21:37:06.162Z,64.44
2022-08-27T21:39:34.167Z,64.20
2022-08-27T21:42:01.680Z,64.33
2022-08-27T21:44:30.409Z,64.12
2022-08-27T21:46:57.771Z,64.30
2022-08-27T21:49:24.306Z,64.57
2022-08-27T21:51:50.881Z,64.64
2022-08-27T21:54:17.550Z,65.04
2022-08-27T21:56:44.540Z,65.16
2022-08-27T21:59:11.121Z,65.00
2022-08-27T22:01:37.718Z,65.23
2022-08-27T22:04:04.221Z,65.28
2022-08-27T22:06:30.733Z,65.37
2022-08-27T22:08:57.228Z,66.21
2022-08-27T22:11:24.542Z,66.18
2022-08-27T22:13:51.952Z,66.35
2022-08-27T22:16:19.298Z,66.66
2022-08-27T22:18:45.825Z,66.85
2022-08-27T22:21:12.492Z,66.45
2022-08-27T22:23:39.004Z,66.40
2022-08-27T22:26:09.696Z,66.34
2022-08-27T22:28:36.202Z,66.47
2022-08-27T22:31:02.744Z,66.40
2022-08-27T22:33:29.290Z,66.35
2022-08-27T22:35:55.867Z,66.58
2022-08-27T22:38:22.358Z,66.37
2022-08-27T22:40:50.124Z,66.41
2022-08-27T22:43:17.016Z,66.34
2022-08-27T22:45:43.495Z,66.51
2022-08-27T22:48:10.171Z,66.73
2022-08-27T22:50:36.764Z,66.83
2022-08-27T22:53:03.426Z,66.64
2022-08-27T22:55:29.954Z,66.75
2022-08-27T22:57:56.532Z,66.48
2022-08-27T23:00:26.990Z,66.14
2022-08-27T23:02:54.089Z,66.15
2022-08-27T23:05:21.455Z,66.01
2022-08-27T23:07:48.378Z,65.81
2022-08-27T23:10:18.315Z,65.84
2022-08-27T23:12:46.510Z,65.84
2022-08-27T23:15:15.611Z,65.81
2022-08-27T23:17:42.144Z,65.96
2022-08-27T23:20:10.917Z,65.94
2022-08-27T23:22:38.787Z,66.28
2022-08-27T23:25:26.185Z,66.50
2022-08-27T23:27:53.681Z,66.58
2022-08-27T23:30:21.466Z,66.60
2022-08-27T23:32:53.762Z,66.96
2022-08-27T23:35:22.544Z,66.58
2022-08-27T23:37:50.026Z,66.77
2022-08-27T23:40:17.800Z,66.55
2022-08-27T23:42:45.261Z,66.78
2022-08-27T23:45:15.210Z,67.26
2022-08-27T23:47:41.681Z,67.22
2022-08-27T23:50:09.545Z,67.40
2022-08-27T23:52:37.212Z,67.50
2022-08-27T23:55:05.154Z,67.44
2022-08-27T23:57:31.658Z,67.46
2022-08-27T23:59:58.152Z,67.30
